createdAt,value
2022-08-22T00:03:09.033Z,3.25
2022-08-22T00:04:09.086Z,3.13
2022-08-22T00:09:36.990Z,3.10
2022-08-22T00:15:06.433Z,2.60
2022-08-22T00:20:37.283Z,2.78
2022-08-22T00:26:02.920Z,2.70
2022-08-22T00:31:31.702Z,2.10
2022-08-22T00:37:01.700Z,3.47
2022-08-22T00:42:47.293Z,2.88
2022-08-22T00:48:41.740Z,3.28
2022-08-22T00:54:18.259Z,3.42
2022-08-22T00:59:59.270Z,3.73
2022-08-22T01:05:35.011Z,3.30
2022-08-22T01:11:11.571Z,3.63
2022-08-22T01:16:50.940Z,3.13
2022-08-22T01:22:34.750Z,3.10
2022-08-22T01:28:23.815Z,2.53
2022-08-22T01:34:25.268Z,3.00
2022-08-22T01:39:59.260Z,3.03
2022-08-22T01:45:37.890Z,3.92
2022-08-22T01:51:13.328Z,3.67
2022-08-22T01:56:41.526Z,2.53
2022-08-22T02:02:16.637Z,2.83
2022-08-22T02:07:47.006Z,2.57
2022-08-22T02:13:24.191Z,4.43
2022-08-22T02:18:57.329Z,3.67
2022-08-22T02:24:27.760Z,3.40
2022-08-22T02:30:00.930Z,3.70
2022-08-22T02:35:29.155Z,2.83
2022-08-22T02:41:03.416Z,3.37
2022-08-22T02:46:30.617Z,3.50
2022-08-22T02:51:58.822Z,3.80
2022-08-22T02:57:28.343Z,3.20
2022-08-22T03:03:02.705Z,3.08
2022-08-22T03:08:29.250Z,3.23
2022-08-22T03:14:04.200Z,3.20
2022-08-22T03:19:31.584Z,3.27
2022-08-22T03:24:57.123Z,3.60
2022-08-22T03:30:32.155Z,4.50
2022-08-22T03:36:06.836Z,3.13
2022-08-22T03:42:04.543Z,2.73
2022-08-22T03:47:45.678Z,3.73
2022-08-22T03:53:25.334Z,3.50
2022-08-22T03:59:29.886Z,3.67
2022-08-22T04:05:32.433Z,4.43
2022-08-22T04:11:18.697Z,2.83
2022-08-22T04:17:02.082Z,3.00
2022-08-22T04:23:16.297Z,2.33
2022-08-22T04:28:44.867Z,2.77
2022-08-22T04:34:15.307Z,3.70
2022-08-22T04:39:43.102Z,3.60
2022-08-22T04:45:11.867Z,4.23
2022-08-22T04:50:42.983Z,3.20
2022-08-22T04:56:09.267Z,2.27
2022-08-22T05:01:43.717Z,2.60
2022-08-22T05:07:22.936Z,3.83
2022-08-22T05:12:49.518Z,3.27
2022-08-22T05:18:18.558Z,3.73
2022-08-22T05:23:45.489Z,2.83
2022-08-22T05:29:10.873Z,3.00
2022-08-22T05:34:38.201Z,3.07
2022-08-22T05:40:02.110Z,3.30
2022-08-22T05:45:27.065Z,4.07
2022-08-22T05:50:56.029Z,2.67
2022-08-22T05:56:24.446Z,3.47
2022-08-22T06:01:56.031Z,3.72
2022-08-22T06:07:23.510Z,2.97
2022-08-22T06:12:53.545Z,3.77
2022-08-22T06:18:20.822Z,3.47
2022-08-22T06:23:47.533Z,3.88
2022-08-22T06:29:11.046Z,3.22
2022-08-22T06:34:36.045Z,2.92
2022-08-22T06:40:01.719Z,3.15
2022-08-22T06:45:28.632Z,3.10
2022-08-22T06:50:53.934Z,2.50
2022-08-22T06:56:23.202Z,2.25
2022-08-22T07:01:51.120Z,2.28
2022-08-22T07:07:19.078Z,3.92
2022-08-22T07:12:46.538Z,2.55
2022-08-22T07:18:16.302Z,2.35
2022-08-22T07:23:42.107Z,1.85
2022-08-22T07:29:11.408Z,2.03
2022-08-22T07:34:44.692Z,2.05
2022-08-22T07:40:15.947Z,1.95
2022-08-22T07:45:44.815Z,2.35
2022-08-22T07:51:11.814Z,1.85
2022-08-22T07:56:37.787Z,2.95
2022-08-22T08:02:02.729Z,2.08
2022-08-22T08:07:28.991Z,1.60
2022-08-22T08:13:02.194Z,2.25
2022-08-22T08:18:29.557Z,1.30
2022-08-22T08:23:53.569Z,1.77
2022-08-22T08:29:18.662Z,1.42
2022-08-22T08:34:45.291Z,1.67
2022-08-22T08:40:18.905Z,1.05
2022-08-22T08:45:59.241Z,2.88
2022-08-22T08:51:53.731Z,1.95
2022-08-22T08:57:24.052Z,1.33
2022-08-22T09:02:53.351Z,1.55
2022-08-22T09:08:42.537Z,1.98
2022-08-22T09:14:14.121Z,1.58
2022-08-22T09:25:53.810Z,2.00
2022-08-22T09:37:21.889Z,1.80
2022-08-22T09:42:56.461Z,1.48
2022-08-22T09:48:30.461Z,1.40
2022-08-22T09:54:22.843Z,1.50
2022-08-22T09:59:58.142Z,1.70
2022-08-22T10:05:40.613Z,1.35
2022-08-22T10:11:18.917Z,2.03
2022-08-22T10:17:00.806Z,1.40
2022-08-22T10:22:31.250Z,2.47
2022-08-22T10:28:01.338Z,1.67
2022-08-22T10:33:30.944Z,1.60
2022-08-22T10:38:56.017Z,1.45
2022-08-22T10:44:22.601Z,1.75
2022-08-22T10:49:51.433Z,2.13
2022-08-22T10:55:17.473Z,1.63
2022-08-22T11:00:49.964Z,1.80
2022-08-22T11:06:21.460Z,1.60
2022-08-22T11:11:47.560Z,1.75
2022-08-22T11:17:28.853Z,2.05
2022-08-22T11:23:12.538Z,1.58
2022-08-22T11:28:51.945Z,1.33
2022-08-22T11:34:31.107Z,1.50
2022-08-22T11:40:05.938Z,1.38
2022-08-22T11:45:32.533Z,1.25
2022-08-22T11:51:01.449Z,2.17
2022-08-22T11:56:29.016Z,2.53
2022-08-22T12:01:56.731Z,2.75
2022-08-22T12:07:25.813Z,1.85
2022-08-22T12:12:57.289Z,2.17
2022-08-22T12:18:52.821Z,1.70
2022-08-22T12:24:25.358Z,2.33
2022-08-22T12:30:03.374Z,1.48
2022-08-22T12:35:36.415Z,2.33
2022-08-22T12:41:46.493Z,1.88
2022-08-22T12:47:28.204Z,2.28
2022-08-22T12:53:09.874Z,1.52
2022-08-22T12:58:51.186Z,1.75
2022-08-22T13:04:19.322Z,1.60
2022-08-22T13:10:00.776Z,1.73
2022-08-22T13:15:30.114Z,2.38
2022-08-22T13:20:56.878Z,1.63
2022-08-22T13:26:32.016Z,1.63
2022-08-22T13:32:01.912Z,1.67
2022-08-22T13:37:36.858Z,1.58
2022-08-22T13:43:05.454Z,2.33
2022-08-22T13:48:46.819Z,2.00
2022-08-22T13:54:40.226Z,2.10
2022-08-22T14:00:10.066Z,1.80
2022-08-22T14:05:36.728Z,1.73
2022-08-22T14:11:07.108Z,2.25
2022-08-22T14:16:35.278Z,2.22
2022-08-22T14:22:00.620Z,1.40
2022-08-22T14:27:34.408Z,1.70
2022-08-22T14:33:05.596Z,1.77
2022-08-22T14:38:36.775Z,2.47
2022-08-22T14:44:03.815Z,1.45
2022-08-22T14:49:30.618Z,1.88
2022-08-22T14:55:08.122Z,2.25
2022-08-22T15:00:35.840Z,2.25
2022-08-22T15:06:02.051Z,2.15
2022-08-22T15:11:27.319Z,2.42
2022-08-22T15:16:59.615Z,1.83
2022-08-22T15:22:27.616Z,1.88
2022-08-22T15:27:55.033Z,2.42
2022-08-22T15:33:25.433Z,2.25
2022-08-22T15:38:50.571Z,2.22
2022-08-22T15:44:32.441Z,2.15
2022-08-22T15:50:00.303Z,2.75
2022-08-22T15:55:25.819Z,2.08
2022-08-22T16:01:14.182Z,2.20
2022-08-22T16:06:48.125Z,1.90
2022-08-22T16:12:13.322Z,1.98
2022-08-22T16:17:44.015Z,1.90
2022-08-22T16:23:08.830Z,2.00
2022-08-22T16:28:57.317Z,2.13
2022-08-22T16:34:22.629Z,1.67
2022-08-22T16:39:49.027Z,2.00
2022-08-22T16:45:16.571Z,1.67
2022-08-22T16:50:41.002Z,2.35
2022-08-22T16:56:18.057Z,1.67
2022-08-22T17:01:56.030Z,2.00
2022-08-22T17:07:28.664Z,1.40
2022-08-22T17:13:03.863Z,1.40
2022-08-22T17:18:46.597Z,2.28
2022-08-22T17:24:33.680Z,1.58
2022-08-22T17:30:07.026Z,2.00
2022-08-22T17:35:41.294Z,1.80
2022-08-22T17:41:10.390Z,2.28
2022-08-22T17:46:49.115Z,1.95
2022-08-22T17:52:17.398Z,1.75
2022-08-22T17:57:46.330Z,1.77
2022-08-22T18:03:17.145Z,2.10
2022-08-22T18:14:34.434Z,2.38
2022-08-22T18:20:04.836Z,2.45
2022-08-22T18:25:33.686Z,2.17
2022-08-22T18:31:01.976Z,2.47
2022-08-22T18:36:30.854Z,2.40
2022-08-22T18:41:58.530Z,2.70
2022-08-22T18:47:25.884Z,1.88
2022-08-22T18:52:55.807Z,2.55
2022-08-22T18:58:50.321Z,2.25
2022-08-22T19:04:53.446Z,2.53
2022-08-22T19:10:35.433Z,2.20
2022-08-22T19:16:09.426Z,2.03
2022-08-22T19:21:51.826Z,3.20
2022-08-22T19:27:30.940Z,2.70
2022-08-22T19:33:03.066Z,3.55
2022-08-22T19:38:56.399Z,3.35
2022-08-22T19:44:35.210Z,2.70
2022-08-22T19:50:02.214Z,2.08
2022-08-22T19:55:34.658Z,2.50
2022-08-22T20:01:02.643Z,2.50
2022-08-22T20:06:43.482Z,2.47
2022-08-22T20:12:15.728Z,2.20
2022-08-22T20:17:43.877Z,2.70
2022-08-22T20:23:12.557Z,2.72
2022-08-22T20:28:46.093Z,2.75
2022-08-22T20:34:12.152Z,2.55
2022-08-22T20:39:39.378Z,3.47
2022-08-22T20:45:12.126Z,3.40
2022-08-22T20:50:37.223Z,1.98
2022-08-22T20:56:00.527Z,2.03
2022-08-22T21:01:24.588Z,2.83
2022-08-22T21:06:59.740Z,2.13
2022-08-22T21:12:24.098Z,2.50
2022-08-22T21:17:47.271Z,2.45
2022-08-22T21:23:15.146Z,2.55
2022-08-22T21:28:41.397Z,2.38
2022-08-22T21:34:05.768Z,2.60
2022-08-22T21:39:33.298Z,3.00
2022-08-22T21:44:57.793Z,2.35
2022-08-22T21:50:31.685Z,2.33
2022-08-22T21:56:13.085Z,2.33
2022-08-22T22:01:36.326Z,2.28
2022-08-22T22:07:05.827Z,2.30
2022-08-22T22:12:30.539Z,2.92
2022-08-22T22:17:53.709Z,2.33
2022-08-22T22:23:17.149Z,2.13
2022-08-22T22:28:47.311Z,2.30
2022-08-22T22:34:10.391Z,2.47
2022-08-22T22:39:35.578Z,2.25
2022-08-22T22:44:59.998Z,2.35
2022-08-22T22:50:23.163Z,2.22
2022-08-22T22:55:48.091Z,3.67
2022-08-22T23:01:26.661Z,2.45
2022-08-22T23:06:49.815Z,2.92
2022-08-22T23:12:13.486Z,2.22
2022-08-22T23:17:37.914Z,2.83
2022-08-22T23:23:01.088Z,3.13
2022-08-22T23:28:24.108Z,2.85
2022-08-22T23:33:48.580Z,3.40
2022-08-22T23:39:13.537Z,3.55
2022-08-22T23:44:38.466Z,3.88
2022-08-22T23:50:04.356Z,3.75
2022-08-22T23:55:29.319Z,3.25
